createdAt,value
2019-05-25T00:01:21.308Z,83.90
2019-05-25T00:03:52.623Z,83.70
2019-05-25T00:06:24.041Z,83.40
2019-05-25T00:08:56.223Z,82.70
2019-05-25T00:11:28.489Z,82.60
2019-05-25T00:14:00.022Z,82.10
2019-05-25T00:16:31.482Z,81.80
2019-05-25T00:19:05.270Z,81.30
2019-05-25T00:21:36.630Z,81.30
2019-05-25T00:24:12.054Z,81.30
2019-05-25T00:26:40.844Z,81.20
2019-05-25T00:29:14.666Z,81.20
2019-05-25T00:31:45.999Z,80.70
2019-05-25T00:34:18.369Z,81.00
2019-05-25T00:36:52.609Z,81.10
2019-05-25T00:39:26.423Z,81.30
2019-05-25T00:41:57.925Z,81.10
2019-05-25T00:44:32.702Z,80.70
2019-05-25T00:47:04.379Z,80.50
2019-05-25T00:49:38.016Z,80.30
2019-05-25T00:52:10.702Z,79.70
2019-05-25T00:54:42.183Z,79.40
2019-05-25T00:57:16.882Z,78.30
2019-05-25T00:59:48.347Z,78.10
2019-05-25T01:02:21.953Z,76.90
2019-05-25T01:04:53.422Z,77.00
2019-05-25T01:07:24.683Z,76.20
2019-05-25T01:09:56.016Z,75.80
2019-05-25T01:12:27.487Z,76.00
2019-05-25T01:14:58.916Z,76.00
2019-05-25T01:17:34.036Z,75.50
2019-05-25T01:20:06.486Z,75.20
2019-05-25T01:22:37.965Z,75.20
2019-05-25T01:25:11.044Z,74.40
2019-05-25T01:27:42.548Z,74.40
2019-05-25T01:30:17.663Z,73.60
2019-05-25T01:32:52.494Z,73.30
2019-05-25T01:35:24.254Z,73.80
2019-05-25T01:37:56.578Z,73.30
2019-05-25T01:40:27.896Z,73.00
2019-05-25T01:43:00.291Z,72.10
2019-05-25T01:45:35.123Z,71.70
2019-05-25T01:48:06.603Z,70.70
2019-05-25T01:50:39.793Z,70.60
2019-05-25T01:53:13.162Z,70.40
2019-05-25T01:55:44.648Z,70.30
2019-05-25T01:58:16.358Z,69.70
2019-05-25T02:00:47.830Z,70.00
2019-05-25T02:03:19.527Z,70.00
2019-05-25T02:05:50.840Z,67.90
2019-05-25T02:08:22.134Z,67.90
2019-05-25T02:10:54.573Z,68.20
2019-05-25T02:13:26.613Z,68.00
2019-05-25T02:15:59.652Z,66.90
2019-05-25T02:18:32.057Z,67.70
2019-05-25T02:21:03.743Z,68.00
2019-05-25T02:23:35.256Z,68.60
2019-05-25T02:26:07.872Z,67.20
2019-05-25T02:28:39.215Z,66.20
2019-05-25T02:31:10.512Z,64.90
2019-05-25T02:33:41.691Z,63.90
2019-05-25T02:36:13.875Z,63.80
2019-05-25T02:38:46.356Z,63.90
2019-05-25T02:41:17.943Z,63.70
2019-05-25T02:43:51.324Z,63.90
2019-05-25T02:46:22.213Z,65.00
2019-05-25T02:48:57.298Z,64.80
2019-05-25T02:51:29.779Z,63.40
2019-05-25T02:54:01.305Z,64.80
2019-05-25T02:56:35.067Z,65.30
2019-05-25T02:59:25.317Z,64.50
2019-05-25T03:01:57.841Z,64.30
2019-05-25T03:04:29.380Z,63.90
2019-05-25T03:07:01.910Z,64.10
2019-05-25T03:09:33.925Z,63.00
2019-05-25T03:12:07.479Z,64.00
2019-05-25T03:14:39.738Z,64.40
2019-05-25T03:17:16.654Z,63.60
2019-05-25T03:19:48.187Z,63.60
2019-05-25T03:22:19.553Z,62.80
2019-05-25T03:24:51.043Z,62.40
2019-05-25T03:27:23.393Z,62.40
2019-05-25T03:29:55.892Z,62.00
2019-05-25T03:32:30.362Z,62.30
2019-05-25T03:35:20.865Z,63.20
2019-05-25T03:37:54.710Z,60.60
2019-05-25T03:40:26.259Z,59.80
2019-05-25T03:42:59.624Z,61.10
2019-05-25T03:45:31.973Z,60.80
2019-05-25T03:48:04.296Z,59.60
2019-05-25T03:50:38.687Z,59.60
2019-05-25T03:53:10.145Z,59.70
2019-05-25T03:55:43.574Z,58.60
2019-05-25T03:58:16.159Z,58.50
2019-05-25T04:01:09.412Z,59.50
2019-05-25T04:03:41.920Z,59.40
2019-05-25T04:06:13.409Z,58.20
2019-05-25T04:08:47.422Z,58.70
2019-05-25T04:13:58.504Z,58.60
2019-05-25T04:16:31.153Z,57.90
2019-05-25T04:19:02.667Z,58.70
2019-05-25T04:21:35.293Z,57.10
2019-05-25T04:24:07.015Z,56.60
2019-05-25T04:26:39.236Z,57.60
2019-05-25T04:29:14.255Z,58.30
2019-05-25T04:31:47.608Z,57.40
2019-05-25T04:34:18.951Z,57.60
2019-05-25T04:36:52.345Z,58.20
2019-05-25T04:39:24.790Z,58.30
2019-05-25T04:42:03.792Z,58.60
2019-05-25T04:44:36.199Z,58.50
2019-05-25T04:47:09.546Z,58.20
2019-05-25T04:49:40.969Z,58.00
2019-05-25T04:52:14.774Z,57.10
2019-05-25T04:54:46.226Z,57.20
2019-05-25T04:57:19.638Z,57.70
2019-05-25T04:59:51.596Z,57.60
2019-05-25T05:02:25.955Z,57.60
2019-05-25T05:05:01.005Z,57.80
2019-05-25T05:07:32.411Z,57.70
2019-05-25T05:10:03.946Z,57.10
2019-05-25T05:12:35.441Z,56.10
2019-05-25T05:15:08.448Z,56.80
2019-05-25T05:17:39.935Z,56.70
2019-05-25T05:20:11.937Z,55.90
2019-05-25T05:22:44.225Z,54.80
2019-05-25T05:25:15.695Z,55.90
2019-05-25T05:27:50.354Z,56.70
2019-05-25T05:30:23.819Z,56.50
2019-05-25T05:32:56.297Z,56.80
2019-05-25T05:35:31.229Z,56.80
2019-05-25T05:38:03.695Z,56.00
2019-05-25T05:40:35.740Z,55.80
2019-05-25T05:43:11.771Z,56.50
2019-05-25T05:45:45.373Z,56.00
2019-05-25T05:48:17.657Z,56.20
2019-05-25T05:50:51.217Z,55.70
2019-05-25T05:53:25.281Z,55.60
2019-05-25T05:55:56.682Z,55.40
2019-05-25T05:58:27.920Z,54.80
2019-05-25T06:00:59.420Z,55.00
2019-05-25T06:03:31.117Z,55.40
2019-05-25T06:06:02.702Z,54.80
2019-05-25T06:08:34.292Z,54.10
2019-05-25T06:11:06.705Z,54.20
2019-05-25T06:13:39.790Z,54.60
2019-05-25T06:16:12.096Z,54.70
2019-05-25T06:18:48.176Z,53.30
2019-05-25T06:21:19.624Z,52.80
2019-05-25T06:23:51.370Z,53.40
2019-05-25T06:26:23.041Z,53.00
2019-05-25T06:28:54.406Z,52.40
2019-05-25T06:31:25.937Z,52.80
2019-05-25T06:33:58.191Z,51.50
2019-05-25T06:36:29.915Z,52.20
2019-05-25T06:39:01.376Z,51.90
2019-05-25T06:41:33.941Z,52.70
2019-05-25T06:44:05.715Z,53.10
2019-05-25T06:46:39.697Z,52.40
2019-05-25T06:49:10.333Z,52.80
2019-05-25T06:51:41.853Z,53.50
2019-05-25T06:54:14.067Z,52.90
2019-05-25T06:56:45.527Z,53.50
2019-05-25T06:59:17.058Z,53.10
2019-05-25T07:01:48.395Z,51.50
2019-05-25T07:04:19.783Z,52.50
2019-05-25T07:06:51.219Z,49.30
2019-05-25T07:09:22.693Z,49.50
2019-05-25T07:11:54.024Z,50.20
2019-05-25T07:14:25.582Z,50.90
2019-05-25T07:16:57.007Z,51.70
2019-05-25T07:19:28.391Z,51.20
2019-05-25T07:21:59.677Z,52.70
2019-05-25T07:24:31.127Z,52.20
2019-05-25T07:27:02.645Z,52.40
2019-05-25T07:29:34.395Z,51.80
2019-05-25T07:32:05.920Z,52.50
2019-05-25T07:34:37.293Z,51.20
2019-05-25T07:37:08.719Z,51.70
2019-05-25T07:39:40.173Z,50.90
2019-05-25T07:42:11.993Z,51.40
2019-05-25T07:44:43.627Z,52.30
2019-05-25T07:47:15.400Z,52.60
2019-05-25T07:49:46.735Z,53.30
2019-05-25T07:52:18.229Z,53.10
2019-05-25T07:54:49.935Z,52.50
2019-05-25T07:57:21.160Z,52.30
2019-05-25T07:59:52.869Z,51.10
2019-05-25T08:02:24.401Z,50.90
2019-05-25T08:04:56.114Z,50.80
2019-05-25T08:07:27.340Z,50.80
2019-05-25T08:09:58.891Z,50.50
2019-05-25T08:12:30.228Z,50.40
2019-05-25T08:15:01.496Z,51.40
2019-05-25T08:17:34.204Z,52.00
2019-05-25T08:20:06.925Z,52.40
2019-05-25T08:22:38.538Z,52.80
2019-05-25T08:25:13.047Z,52.70
2019-05-25T08:27:44.031Z,53.30
2019-05-25T08:30:15.815Z,52.90
2019-05-25T08:32:47.484Z,53.40
2019-05-25T08:35:19.269Z,53.30
2019-05-25T08:37:50.906Z,52.80
2019-05-25T08:40:22.414Z,52.60
2019-05-25T08:42:53.953Z,53.00
2019-05-25T08:45:26.157Z,52.20
2019-05-25T08:47:57.899Z,52.20
2019-05-25T08:50:37.778Z,52.60
2019-05-25T08:53:02.558Z,52.90
2019-05-25T08:55:34.017Z,53.10
2019-05-25T08:58:05.361Z,52.50
2019-05-25T09:00:37.061Z,52.40
2019-05-25T09:03:09.649Z,52.70
2019-05-25T09:05:41.114Z,52.20
2019-05-25T09:08:12.686Z,52.40
2019-05-25T09:10:44.271Z,52.40
2019-05-25T09:13:15.513Z,53.10
2019-05-25T09:15:48.112Z,52.90
2019-05-25T09:18:19.445Z,52.90
2019-05-25T09:20:50.809Z,52.80
2019-05-25T09:23:22.204Z,52.80
2019-05-25T09:25:53.804Z,52.20
2019-05-25T09:28:25.207Z,52.40
2019-05-25T09:30:56.665Z,52.70
2019-05-25T09:33:27.960Z,52.80
2019-05-25T09:35:59.292Z,52.70
2019-05-25T09:38:30.704Z,53.00
2019-05-25T09:41:02.290Z,53.10
2019-05-25T09:43:33.974Z,52.90
2019-05-25T09:46:05.593Z,53.50
2019-05-25T09:48:38.303Z,53.60
2019-05-25T09:51:16.231Z,53.40
2019-05-25T09:53:42.797Z,53.10
2019-05-25T09:56:14.114Z,53.30
2019-05-25T09:58:45.410Z,53.30
2019-05-25T10:01:16.947Z,53.40
2019-05-25T10:03:48.459Z,53.20
2019-05-25T10:06:19.882Z,53.20
2019-05-25T10:08:51.372Z,53.70
2019-05-25T10:11:23.161Z,54.00
2019-05-25T10:13:54.694Z,54.40
2019-05-25T10:16:26.227Z,54.50
2019-05-25T10:18:57.546Z,54.70
2019-05-25T10:21:31.387Z,55.00
2019-05-25T10:24:02.032Z,55.00
2019-05-25T10:26:34.334Z,55.10
2019-05-25T10:29:05.829Z,55.40
2019-05-25T10:31:37.136Z,55.50
2019-05-25T10:34:08.723Z,55.70
2019-05-25T10:36:40.079Z,56.00
2019-05-25T10:39:11.541Z,56.90
2019-05-25T10:41:42.982Z,57.80
2019-05-25T10:44:14.297Z,58.80
2019-05-25T10:46:45.983Z,58.90
2019-05-25T10:49:17.344Z,59.30
2019-05-25T10:51:48.688Z,59.60
2019-05-25T10:54:20.105Z,59.80
2019-05-25T10:56:51.650Z,60.10
2019-05-25T10:59:22.881Z,60.30
2019-05-25T11:01:54.391Z,60.60
2019-05-25T11:04:26.089Z,60.50
2019-05-25T11:06:57.824Z,60.90
2019-05-25T11:09:29.138Z,61.00
2019-05-25T11:12:00.426Z,61.40
2019-05-25T11:14:31.967Z,61.20
2019-05-25T11:17:03.241Z,61.20
2019-05-25T11:19:34.895Z,61.70
2019-05-25T11:22:06.396Z,61.70
2019-05-25T11:24:37.854Z,61.90
2019-05-25T11:27:09.291Z,61.90
2019-05-25T11:29:42.437Z,61.90
2019-05-25T11:32:13.475Z,61.90
2019-05-25T11:34:44.857Z,62.60
2019-05-25T11:37:16.430Z,62.80
2019-05-25T11:39:47.709Z,62.90
2019-05-25T11:42:19.155Z,62.90
2019-05-25T11:44:51.912Z,62.60
2019-05-25T11:47:26.492Z,62.80
2019-05-25T11:50:01.759Z,62.60
2019-05-25T11:52:33.337Z,62.40
2019-05-25T11:55:05.444Z,62.30
2019-05-25T11:57:37.071Z,62.40
2019-05-25T12:00:23.734Z,62.60
2019-05-25T12:02:43.567Z,62.90
2019-05-25T12:05:16.289Z,62.80
2019-05-25T12:07:47.743Z,62.50
2019-05-25T12:10:23.876Z,62.80
2019-05-25T14:31:23.164Z,70.20
2019-05-25T14:34:09.660Z,70.00
2019-05-25T14:36:30.984Z,70.10
2019-05-25T14:39:03.869Z,70.00
2019-05-25T14:41:42.862Z,69.70
2019-05-25T14:44:16.192Z,70.00
2019-05-25T14:46:43.067Z,70.20
2019-05-25T14:49:20.795Z,70.40
2019-05-25T14:51:50.783Z,70.50
2019-05-25T14:54:30.334Z,70.50
2019-05-25T14:59:33.019Z,70.90
2019-05-25T15:02:05.684Z,70.80
2019-05-25T15:04:38.194Z,71.90
2019-05-25T15:07:12.846Z,70.90
2019-05-25T15:10:02.363Z,71.10
2019-05-25T15:12:25.708Z,71.10
2019-05-25T15:14:58.846Z,71.20
2019-05-25T15:17:36.594Z,71.10
2019-05-25T15:20:08.551Z,71.10
2019-05-25T15:22:41.996Z,70.80
2019-05-25T15:31:15.424Z,70.60
2019-05-25T15:42:47.538Z,71.60
2019-05-25T15:45:21.413Z,73.60
2019-05-25T15:47:52.505Z,72.50
2019-05-25T15:50:29.323Z,73.90
2019-05-25T15:53:06.648Z,75.20
2019-05-25T15:55:45.313Z,75.00
2019-05-25T15:58:18.156Z,75.20
2019-05-25T16:01:12.118Z,75.10
2019-05-25T16:04:04.920Z,75.20
2019-05-25T16:06:25.106Z,75.00
2019-05-25T16:09:10.992Z,75.40
2019-05-25T16:11:45.679Z,75.00
2019-05-25T16:14:22.561Z,75.10
2019-05-25T16:20:04.271Z,75.80
2019-05-25T16:22:38.645Z,75.70
2019-05-25T16:29:21.933Z,75.50
2019-05-25T16:30:59.287Z,75.60
2019-05-25T16:33:31.895Z,75.70
2019-05-25T16:36:14.440Z,75.50
2019-05-25T16:38:42.379Z,75.40
2019-05-25T16:41:23.335Z,75.30
2019-05-25T16:45:05.299Z,75.00
2019-05-25T16:46:32.532Z,75.20
2019-05-25T16:49:09.261Z,74.20
2019-05-25T16:51:41.046Z,73.80
2019-05-25T16:54:16.612Z,73.60
2019-05-25T16:56:48.266Z,73.20
2019-05-25T16:59:22.827Z,73.20
2019-05-25T17:01:54.355Z,73.00
2019-05-25T17:04:25.817Z,72.80
2019-05-25T17:07:00.732Z,72.50
2019-05-25T17:09:39.136Z,73.10
2019-05-25T17:12:13.548Z,72.30
2019-05-25T17:15:37.329Z,72.70
2019-05-25T17:17:21.413Z,72.00
2019-05-25T17:20:26.360Z,71.90
2019-05-25T17:22:48.358Z,71.80
2019-05-25T17:25:18.265Z,72.30
2019-05-25T17:27:52.662Z,72.50
2019-05-25T17:30:29.213Z,72.70
2019-05-25T17:33:09.626Z,72.50
2019-05-25T17:35:45.220Z,72.60
2019-05-25T17:38:16.085Z,72.40
2019-05-25T17:40:52.365Z,72.30
2019-05-25T17:43:32.107Z,72.50
2019-05-25T17:46:03.876Z,72.30
2019-05-25T17:48:45.620Z,72.20
2019-05-25T17:51:28.417Z,72.60
2019-05-25T17:53:55.943Z,72.70
2019-05-25T17:56:28.935Z,72.90
2019-05-25T17:59:00.040Z,72.70
2019-05-25T18:01:33.013Z,72.70
2019-05-25T18:04:07.756Z,72.60
2019-05-25T18:06:53.881Z,72.70
2019-05-25T18:09:28.229Z,72.80
2019-05-25T18:14:58.272Z,72.70
2019-05-25T18:17:44.174Z,73.00
2019-05-25T18:20:14.300Z,73.10
2019-05-25T18:23:34.816Z,72.90
2019-05-25T18:31:24.058Z,73.10
2019-05-25T18:59:11.807Z,73.00
2019-05-25T19:02:34.023Z,73.70
2019-05-25T19:18:53.698Z,74.90
2019-05-25T19:21:28.564Z,75.00
2019-05-25T19:24:19.648Z,75.10
2019-05-25T19:30:17.120Z,75.70
2019-05-25T19:35:12.661Z,75.30
2019-05-25T19:40:42.676Z,76.00
2019-05-25T19:43:36.405Z,76.20
2019-05-25T19:46:08.328Z,75.90
2019-05-25T19:49:06.079Z,75.70
2019-05-25T19:51:17.973Z,75.90
2019-05-25T19:53:53.677Z,76.00
2019-05-25T19:56:40.424Z,76.00
2019-05-25T20:05:16.446Z,75.50
2019-05-25T20:08:10.219Z,75.80
2019-05-25T20:10:16.938Z,75.70
2019-05-25T20:26:30.635Z,75.60
2019-05-25T20:58:39.357Z,76.80
2019-05-25T21:07:52.631Z,77.20
2019-05-25T21:28:22.812Z,77.30
2019-05-25T21:31:10.316Z,77.30
2019-05-25T21:43:13.545Z,77.50
2019-05-25T21:55:24.338Z,77.70
2019-05-25T21:58:02.881Z,78.00
2019-05-25T22:29:16.916Z,78.80
2019-05-25T22:32:49.664Z,79.30
2019-05-25T22:38:33.049Z,78.80
